首页
METAR-TAF:

METAR-TAF

机场 :

Shahrekord, 伊朗

纬度: 32-20N, 经度: 050-51E, 海拔: 2078米

当前天气观测

该预报发布于19分钟前的09:00 UTC
风速4节,风向东南
温度 23°C
湿度 16%
气压 1029 hPa
能见度10公里或以上
1500米以下无云,无积雨云

METAR: OIFS 170900Z 13004KT CAVOK 23/M04 Q1029

时间: 12:49 (09:19 UTC)


TAF: 丢失

超过4000个机场的气象观测和天气预报(METAR&TAF报告)。

可查询的气象台以黄色和红色小点在地图上表示。

将鼠标移到小点上方,可查看气象台名称。

然后点击查看天气观测和预报。

如需切换地图:点击带黑十字的绿色按钮放大地图;点击带横线的绿色按钮缩小地图;或者点击绿色箭头查看邻近地区的地图。


METAR-TAF: